Wetterstation-Oberesslingen
Wetterdaten: aktuell Dienstag, 07.04.2020 21:25
Datum Zeit Temperatur BodenT. -10 Temp+5cm Luftfeuchte Bod.Feuchte Luftdruck Regen Wind Richtung Richtung Sonnenschein ET Solar Taupunkt Windchill Windben
07.04.2020 21:25 14,2 C 10,0 C 6,7 C 52 % 52 cb 1026,8 hPa 0,0 l/m 1,1 km/h (1 Bft) N 0 0 min 0,025 mm 0 W/m 4,5 C 14,2 C 0,0 km/h (0 Bft)
07.04.2020 20:25 18,2 C 10,0 C 9,4 C 39 % 51 cb 1026,4 hPa 0,0 l/m 1,1 km/h (1 Bft) N 0 10 min 0,025 mm 0 W/m 4,0 C 18,2 C 0,0 km/h (0 Bft)
07.04.2020 19:25 21,3 C 10,0 C 17,8 C 30 % 51 cb 1026,0 hPa 0,0 l/m 1,1 km/h (1 Bft) N 0 45 min 0,127 mm 44 W/m 3,0 C 21,3 C 0,0 km/h (0 Bft)
07.04.2020 18:25 22,8 C 10,0 C 23,3 C 26 % 50 cb 1026,2 hPa 0,0 l/m 1,1 km/h (1 Bft) N 0 60 min 0,229 mm 216 W/m 2,3 C 22,8 C 0,0 km/h (0 Bft)
07.04.2020 17:25 23,6 C 9,4 C 28,3 C 24 % 50 cb 1026,4 hPa 0,0 l/m 2,7 km/h (1 Bft) O-SO 112 60 min 0,330 mm 394 W/m 1,8 C 23,6 C 12,9 km/h (3 Bft)
07.04.2020 16:25 23,7 C 9,4 C 30,0 C 24 % 50 cb 1026,8 hPa 0,0 l/m 1,1 km/h (1 Bft) N-NO 22 60 min 0,406 mm 548 W/m 1,9 C 23,7 C 1,6 km/h (1 Bft)
07.04.2020 15:25 23,6 C 8,9 C 27,8 C 27 % 49 cb 1027,3 hPa 0,0 l/m 2,7 km/h (1 Bft) O 90 60 min 0,457 mm 675 W/m 3,5 C 23,6 C 11,3 km/h (2 Bft)
07.04.2020 14:25 23,7 C 8,9 C 25,0 C 25 % 49 cb 1028,0 hPa 0,0 l/m 1,1 km/h (1 Bft) O-NO 67 60 min 0,483 mm 780 W/m 2,5 C 23,7 C 3,2 km/h (1 Bft)
07.04.2020 13:25 22,8 C 8,3 C 24,4 C 28 % 49 cb 1028,4 hPa 0,0 l/m 2,7 km/h (1 Bft) O-SO 112 60 min 0,457 mm 770 W/m 3,3 C 22,8 C 14,5 km/h (3 Bft)
07.04.2020 12:25 22,0 C 8,3 C 24,4 C 30 % 49 cb 1029,1 hPa 0,0 l/m 1,1 km/h (1 Bft) S-SO 157 60 min 0,381 mm 758 W/m 3,6 C 22,0 C 1,6 km/h (1 Bft)
07.04.2020 11:25 16,8 C 8,3 C 27,2 C 46 % 50 cb 1029,7 hPa 0,0 l/m 1,1 km/h (1 Bft) N 0 60 min 0,279 mm 670 W/m 5,1 C 16,8 C 0,0 km/h (0 Bft)
07.04.2020 10:25 13,2 C 7,8 C 22,2 C 56 % 50 cb 1030,1 hPa 0,0 l/m 1,1 km/h (1 Bft) N 0 60 min 0,178 mm 543 W/m 4,6 C 13,2 C 0,0 km/h (0 Bft)
07.04.2020 09:25 9,6 C 7,8 C 15,6 C 66 % 50 cb 1030,1 hPa 0,0 l/m 1,1 km/h (1 Bft) N 0 60 min 0,102 mm 380 W/m 3,6 C 9,6 C 0,0 km/h (0 Bft)
07.04.2020 08:25 6,4 C 8,3 C 6,1 C 75 % 51 cb 1030,2 hPa 0,0 l/m 1,1 km/h (1 Bft) N 0 35 min 0,025 mm 199 W/m 2,3 C 6,4 C 0,0 km/h (0 Bft)
07.04.2020 07:25 3,8 C 8,3 C 0,6 C 84 % 51 cb 1029,8 hPa 0,0 l/m 1,1 km/h (1 Bft) N 0 5 min 0,000 mm 32 W/m 1,4 C 3,8 C 0,0 km/h (0 Bft)
07.04.2020 06:25 4,6 C 8,3 C 1,1 C 82 % 50 cb 1029,2 hPa 0,0 l/m 1,1 km/h (1 Bft) N 0 0 min 0,000 mm 0 W/m 1,8 C 4,6 C 0,0 km/h (0 Bft)
07.04.2020 05:25 5,2 C 8,3 C 2,2 C 81 % 50 cb 1028,9 hPa 0,0 l/m 1,1 km/h (1 Bft) N 0 0 min 0,000 mm 0 W/m 2,2 C 5,2 C 0,0 km/h (0 Bft)
07.04.2020 04:25 4,7 C 8,9 C 0,0 C 83 % 50 cb 1028,4 hPa 0,0 l/m 1,1 km/h (1 Bft) N 0 0 min 0,000 mm 0 W/m 2,1 C 4,7 C 0,0 km/h (0 Bft)
07.04.2020 03:25 6,0 C 8,9 C 1,1 C 79 % 50 cb 1027,9 hPa 0,0 l/m 1,1 km/h (1 Bft) N 0 0 min 0,000 mm 0 W/m 2,6 C 6,0 C 0,0 km/h (0 Bft)
07.04.2020 02:25 6,8 C 8,9 C 1,7 C 76 % 50 cb 1027,6 hPa 0,0 l/m 1,1 km/h (1 Bft) N 0 0 min 0,000 mm 0 W/m 2,9 C 6,8 C 0,0 km/h (0 Bft)
07.04.2020 01:25 6,9 C 8,9 C 1,7 C 76 % 49 cb 1027,2 hPa 0,0 l/m 1,1 km/h (1 Bft) N 0 0 min 0,000 mm 0 W/m 3,0 C 6,9 C 0,0 km/h (0 Bft)
07.04.2020 00:25 8,2 C 9,4 C 2,2 C 71 % 49 cb 1026,4 hPa 0,0 l/m 1,1 km/h (1 Bft) N 0 0 min 0,000 mm 0 W/m 3,3 C 8,2 C 0,0 km/h (0 Bft)
06.04.2020 23:25 9,3 C 9,4 C 3,3 C 68 % 48 cb 1026,1 hPa 0,0 l/m 1,1 km/h (1 Bft) N 0 0 min 0,000 mm 0 W/m 3,7 C 9,3 C 0,0 km/h (0 Bft)
06.04.2020 22:25 10,9 C 9,4 C 4,4 C 61 % 48 cb 1025,7 hPa 0,0 l/m 1,1 km/h (1 Bft) N 0 0 min 0,000 mm 0 W/m 3,7 C 10,9 C 0,0 km/h (0 Bft)
06.04.2020 22:00 11,6 C 9,4 C 5,0 C 58 % 48 cb 1025,3 hPa 0,0 l/m 1,1 km/h (1 Bft) N 0 0 min 0,000 mm 0 W/m 3,6 C 11,6 C 0,0 km/h (0 Bft)
_ Min-Zeit 07:15 09:25 04:10 16:55 22:00 22:00 - 22:00 - - - - - 16:55 07:15 22:00
Minimum _ 3,7 C 7,8 C 0,0 C 21 % 48 cb 1025,3 hPa - 1,1 km/h (1 Bft) - - - - - 0,1 C 3,7 C 0,0 km/h (0 Bft)
_ Max-Zeit 15:05 18:20 15:45 06:45 20:30 08:25 22:00 13:10 - - 07:00 14:00 14:30 12:00 15:05 13:05
Maximum _ 24,2 C 10,0 C 31,1 C 85 % 52 cb 1030,2 hPa 0,0 l/m 4,3 km/h
O-SO (1 Bft)
- - 5 min 0,483 mm 786 W/m 7,2 C 24,2 C 20,9 km/h
SO (4 Bft)
Durchschnitt _ 13,5 C 8,9 C 12,4 C 55 % 50 cb 1027,7 hPa #0,0 l/m 1,2 km/h (1 Bft) N - #11:35 h #3,504 mm 444 W/m 3,1 C 13,5 C 1,6 km/h (1 Bft)